sensor_id;sensor_type;location;lat;lon;timestamp;P1;durP1;ratioP1;P2;durP2;ratioP2
4210;SDS011;2119;48.828;12.396;2022-08-11T00:02:51;5.57;;;5.27;;
4210;SDS011;2119;48.828;12.396;2022-08-11T00:07:53;6.83;;;5.03;;
4210;SDS011;2119;48.828;12.396;2022-08-11T00:12:59;5.63;;;5.20;;
4210;SDS011;2119;48.828;12.396;2022-08-11T00:17:59;5.17;;;4.83;;
4210;SDS011;2119;48.828;12.396;2022-08-11T00:23:01;8.50;;;5.27;;
4210;SDS011;2119;48.828;12.396;2022-08-11T00:28:01;6.63;;;5.00;;
4210;SDS011;2119;48.828;12.396;2022-08-11T00:33:02;5.73;;;5.33;;
4210;SDS011;2119;48.828;12.396;2022-08-11T00:38:03;5.60;;;5.20;;
4210;SDS011;2119;48.828;12.396;2022-08-11T00:43:12;5.47;;;5.10;;
4210;SDS011;2119;48.828;12.396;2022-08-11T00:53:48;5.00;;;4.70;;
4210;SDS011;2119;48.828;12.396;2022-08-11T01:35:19;5.93;;;5.43;;
4210;SDS011;2119;48.828;12.396;2022-08-11T01:45:51;6.00;;;5.40;;
4210;SDS011;2119;48.828;12.396;2022-08-11T02:01:27;5.67;;;5.30;;
4210;SDS011;2119;48.828;12.396;2022-08-11T02:06:39;6.00;;;5.70;;
4210;SDS011;2119;48.828;12.396;2022-08-11T02:11:57;5.97;;;5.47;;
4210;SDS011;2119;48.828;12.396;2022-08-11T02:22:03;5.87;;;5.53;;
4210;SDS011;2119;48.828;12.396;2022-08-11T02:27:24;6.20;;;5.90;;
4210;SDS011;2119;48.828;12.396;2022-08-11T02:32:28;6.50;;;6.10;;
4210;SDS011;2119;48.828;12.396;2022-08-11T02:38:04;6.17;;;5.77;;
4210;SDS011;2119;48.828;12.396;2022-08-11T02:43:22;6.60;;;6.20;;
4210;SDS011;2119;48.828;12.396;2022-08-11T02:48:50;5.63;;;5.30;;
4210;SDS011;2119;48.828;12.396;2022-08-11T02:59:40;6.00;;;5.53;;
4210;SDS011;2119;48.828;12.396;2022-08-11T03:04:57;6.50;;;6.00;;
4210;SDS011;2119;48.828;12.396;2022-08-11T03:10:02;8.60;;;6.60;;
4210;SDS011;2119;48.828;12.396;2022-08-11T03:30:38;7.10;;;6.40;;
4210;SDS011;2119;48.828;12.396;2022-08-11T03:35:44;6.80;;;6.30;;
4210;SDS011;2119;48.828;12.396;2022-08-11T03:40:57;6.87;;;6.47;;
4210;SDS011;2119;48.828;12.396;2022-08-11T03:46:26;6.83;;;6.43;;
4210;SDS011;2119;48.828;12.396;2022-08-11T03:51:29;8.30;;;6.10;;
4210;SDS011;2119;48.828;12.396;2022-08-11T04:07:13;7.03;;;6.63;;
4210;SDS011;2119;48.828;12.396;2022-08-11T04:38:04;8.83;;;8.10;;
4210;SDS011;2119;48.828;12.396;2022-08-11T04:53:57;9.93;;;8.80;;
4210;SDS011;2119;48.828;12.396;2022-08-11T05:15:40;9.47;;;8.47;;
4210;SDS011;2119;48.828;12.396;2022-08-11T05:21:08;11.87;;;8.30;;
4210;SDS011;2119;48.828;12.396;2022-08-11T05:26:34;8.40;;;7.70;;
4210;SDS011;2119;48.828;12.396;2022-08-11T05:31:57;9.63;;;8.83;;
4210;SDS011;2119;48.828;12.396;2022-08-11T05:42:32;9.10;;;8.40;;
4210;SDS011;2119;48.828;12.396;2022-08-11T05:47:52;9.87;;;8.77;;
4210;SDS011;2119;48.828;12.396;2022-08-11T05:53:13;9.00;;;8.30;;
4210;SDS011;2119;48.828;12.396;2022-08-11T05:58:43;8.50;;;7.80;;
4210;SDS011;2119;48.828;12.396;2022-08-11T06:03:48;7.97;;;7.40;;
4210;SDS011;2119;48.828;12.396;2022-08-11T06:09:10;7.63;;;7.07;;
4210;SDS011;2119;48.828;12.396;2022-08-11T06:14:17;8.07;;;7.47;;
4210;SDS011;2119;48.828;12.396;2022-08-11T06:19:19;6.90;;;6.43;;
4210;SDS011;2119;48.828;12.396;2022-08-11T06:24:22;7.17;;;6.57;;
4210;SDS011;2119;48.828;12.396;2022-08-11T06:29:27;6.43;;;6.03;;
4210;SDS011;2119;48.828;12.396;2022-08-11T06:45:13;5.63;;;5.33;;
4210;SDS011;2119;48.828;12.396;2022-08-11T06:50:21;5.27;;;4.90;;
4210;SDS011;2119;48.828;12.396;2022-08-11T07:01:20;5.23;;;4.83;;
4210;SDS011;2119;48.828;12.396;2022-08-11T07:11:59;6.13;;;4.93;;
4210;SDS011;2119;48.828;12.396;2022-08-11T07:17:19;4.17;;;3.97;;
4210;SDS011;2119;48.828;12.396;2022-08-11T07:22:22;4.07;;;3.87;;
4210;SDS011;2119;48.828;12.396;2022-08-11T07:27:50;4.27;;;3.87;;
4210;SDS011;2119;48.828;12.396;2022-08-11T07:33:21;4.60;;;4.00;;
4210;SDS011;2119;48.828;12.396;2022-08-11T07:38:34;4.40;;;4.07;;
4210;SDS011;2119;48.828;12.396;2022-08-11T07:43:43;4.00;;;3.73;;
4210;SDS011;2119;48.828;12.396;2022-08-11T07:48:48;3.13;;;2.93;;
4210;SDS011;2119;48.828;12.396;2022-08-11T07:54:07;3.17;;;2.97;;
4210;SDS011;2119;48.828;12.396;2022-08-11T07:59:10;3.40;;;3.20;;
4210;SDS011;2119;48.828;12.396;2022-08-11T08:04:31;6.47;;;3.43;;
4210;SDS011;2119;48.828;12.396;2022-08-11T08:09:51;3.20;;;3.00;;
4210;SDS011;2119;48.828;12.396;2022-08-11T08:15:11;3.50;;;3.30;;
4210;SDS011;2119;48.828;12.396;2022-08-11T08:20:31;6.67;;;3.70;;
4210;SDS011;2119;48.828;12.396;2022-08-11T08:25:33;3.43;;;3.20;;
4210;SDS011;2119;48.828;12.396;2022-08-11T08:30:34;3.20;;;3.00;;
4210;SDS011;2119;48.828;12.396;2022-08-11T08:41:10;3.50;;;3.30;;
4210;SDS011;2119;48.828;12.396;2022-08-11T08:46:28;3.20;;;3.00;;
4210;SDS011;2119;48.828;12.396;2022-08-11T08:51:44;3.70;;;3.43;;
4210;SDS011;2119;48.828;12.396;2022-08-11T09:01:54;6.60;;;3.30;;
4210;SDS011;2119;48.828;12.396;2022-08-11T09:06:58;4.70;;;3.10;;
4210;SDS011;2119;48.828;12.396;2022-08-11T09:17:05;3.30;;;3.10;;
4210;SDS011;2119;48.828;12.396;2022-08-11T09:22:06;3.83;;;3.47;;
4210;SDS011;2119;48.828;12.396;2022-08-11T09:27:25;3.70;;;3.50;;
4210;SDS011;2119;48.828;12.396;2022-08-11T09:32:26;3.60;;;3.37;;
4210;SDS011;2119;48.828;12.396;2022-08-11T09:37:30;4.90;;;3.17;;
4210;SDS011;2119;48.828;12.396;2022-08-11T09:42:51;3.60;;;3.30;;
4210;SDS011;2119;48.828;12.396;2022-08-11T09:48:10;6.50;;;3.10;;
4210;SDS011;2119;48.828;12.396;2022-08-11T09:53:12;3.33;;;3.10;;
4210;SDS011;2119;48.828;12.396;2022-08-11T09:58:17;5.30;;;3.43;;
4210;SDS011;2119;48.828;12.396;2022-08-11T10:03:20;3.57;;;3.33;;
4210;SDS011;2119;48.828;12.396;2022-08-11T10:08:22;3.60;;;3.40;;
4210;SDS011;2119;48.828;12.396;2022-08-11T10:13:40;6.00;;;3.70;;
4210;SDS011;2119;48.828;12.396;2022-08-11T10:19:06;3.87;;;3.57;;
4210;SDS011;2119;48.828;12.396;2022-08-11T10:24:16;3.13;;;2.80;;
4210;SDS011;2119;48.828;12.396;2022-08-11T10:29:50;5.13;;;3.10;;
4210;SDS011;2119;48.828;12.396;2022-08-11T10:35:08;3.37;;;3.17;;
4210;SDS011;2119;48.828;12.396;2022-08-11T10:40:13;4.00;;;2.47;;
4210;SDS011;2119;48.828;12.396;2022-08-11T10:45:17;3.00;;;2.80;;
4210;SDS011;2119;48.828;12.396;2022-08-11T10:56:07;2.70;;;2.50;;
4210;SDS011;2119;48.828;12.396;2022-08-11T11:01:34;3.63;;;2.43;;
4210;SDS011;2119;48.828;12.396;2022-08-11T11:12:10;2.80;;;2.60;;
4210;SDS011;2119;48.828;12.396;2022-08-11T11:17:31;3.63;;;3.20;;
4210;SDS011;2119;48.828;12.396;2022-08-11T11:39:10;2.97;;;2.77;;
4210;SDS011;2119;48.828;12.396;2022-08-11T11:44:18;3.00;;;2.80;;
4210;SDS011;2119;48.828;12.396;2022-08-11T11:49:26;2.93;;;2.70;;
4210;SDS011;2119;48.828;12.396;2022-08-11T11:54:32;2.73;;;2.63;;
4210;SDS011;2119;48.828;12.396;2022-08-11T11:59:33;3.03;;;2.90;;
4210;SDS011;2119;48.828;12.396;2022-08-11T12:04:55;2.70;;;2.50;;
4210;SDS011;2119;48.828;12.396;2022-08-11T12:09:59;2.73;;;2.60;;
4210;SDS011;2119;48.828;12.396;2022-08-11T12:15:01;4.20;;;2.87;;
4210;SDS011;2119;48.828;12.396;2022-08-11T12:20:15;3.03;;;2.67;;
4210;SDS011;2119;48.828;12.396;2022-08-11T12:25:18;3.30;;;2.50;;
4210;SDS011;2119;48.828;12.396;2022-08-11T12:30:41;3.50;;;2.90;;
4210;SDS011;2119;48.828;12.396;2022-08-11T12:35:42;2.70;;;2.50;;
4210;SDS011;2119;48.828;12.396;2022-08-11T12:40:57;3.23;;;2.47;;
4210;SDS011;2119;48.828;12.396;2022-08-11T12:52:01;3.40;;;2.80;;
4210;SDS011;2119;48.828;12.396;2022-08-11T12:57:13;4.90;;;2.70;;
4210;SDS011;2119;48.828;12.396;2022-08-11T13:02:36;3.53;;;3.23;;
4210;SDS011;2119;48.828;12.396;2022-08-11T13:08:12;3.20;;;2.67;;
4210;SDS011;2119;48.828;12.396;2022-08-11T13:18:40;2.63;;;2.43;;
4210;SDS011;2119;48.828;12.396;2022-08-11T13:23:48;3.10;;;2.90;;
4210;SDS011;2119;48.828;12.396;2022-08-11T13:28:51;2.63;;;2.43;;
4210;SDS011;2119;48.828;12.396;2022-08-11T13:33:54;2.90;;;2.67;;
4210;SDS011;2119;48.828;12.396;2022-08-11T13:38:55;2.80;;;2.60;;
4210;SDS011;2119;48.828;12.396;2022-08-11T13:43:59;2.70;;;2.50;;
4210;SDS011;2119;48.828;12.396;2022-08-11T13:49:02;4.80;;;2.40;;
4210;SDS011;2119;48.828;12.396;2022-08-11T13:59:12;2.20;;;2.10;;
4210;SDS011;2119;48.828;12.396;2022-08-11T14:04:29;4.43;;;2.60;;
4210;SDS011;2119;48.828;12.396;2022-08-11T14:09:39;2.67;;;2.43;;
4210;SDS011;2119;48.828;12.396;2022-08-11T14:14:39;2.23;;;2.03;;
4210;SDS011;2119;48.828;12.396;2022-08-11T14:19:42;2.30;;;2.10;;
4210;SDS011;2119;48.828;12.396;2022-08-11T14:24:46;3.43;;;2.83;;
4210;SDS011;2119;48.828;12.396;2022-08-11T14:29:56;2.57;;;2.40;;
4210;SDS011;2119;48.828;12.396;2022-08-11T14:35:02;3.00;;;2.70;;
4210;SDS011;2119;48.828;12.396;2022-08-11T14:45:43;2.20;;;2.10;;
4210;SDS011;2119;48.828;12.396;2022-08-11T14:51:20;2.90;;;2.70;;
4210;SDS011;2119;48.828;12.396;2022-08-11T14:56:38;2.10;;;2.00;;
4210;SDS011;2119;48.828;12.396;2022-08-11T15:01:41;2.30;;;2.20;;
4210;SDS011;2119;48.828;12.396;2022-08-11T15:07:06;2.67;;;2.00;;
4210;SDS011;2119;48.828;12.396;2022-08-11T15:12:10;2.57;;;2.20;;
4210;SDS011;2119;48.828;12.396;2022-08-11T15:17:25;2.07;;;1.97;;
4210;SDS011;2119;48.828;12.396;2022-08-11T15:22:28;2.77;;;2.40;;
4210;SDS011;2119;48.828;12.396;2022-08-11T15:27:48;3.00;;;2.70;;
4210;SDS011;2119;48.828;12.396;2022-08-11T15:33:12;2.50;;;2.40;;
4210;SDS011;2119;48.828;12.396;2022-08-11T15:38:33;2.70;;;2.50;;
4210;SDS011;2119;48.828;12.396;2022-08-11T15:43:48;3.00;;;2.80;;
4210;SDS011;2119;48.828;12.396;2022-08-11T15:49:14;3.07;;;2.87;;
4210;SDS011;2119;48.828;12.396;2022-08-11T15:54:21;2.23;;;2.13;;
4210;SDS011;2119;48.828;12.396;2022-08-11T15:59:30;2.80;;;2.60;;
4210;SDS011;2119;48.828;12.396;2022-08-11T16:04:50;3.87;;;2.23;;
4210;SDS011;2119;48.828;12.396;2022-08-11T16:09:58;2.53;;;2.43;;
4210;SDS011;2119;48.828;12.396;2022-08-11T16:15:00;2.97;;;2.87;;
4210;SDS011;2119;48.828;12.396;2022-08-11T16:20:20;2.30;;;2.10;;
4210;SDS011;2119;48.828;12.396;2022-08-11T16:25:21;3.20;;;3.00;;
4210;SDS011;2119;48.828;12.396;2022-08-11T16:30:22;3.07;;;2.60;;
4210;SDS011;2119;48.828;12.396;2022-08-11T16:35:23;5.20;;;2.70;;
4210;SDS011;2119;48.828;12.396;2022-08-11T16:40:42;2.90;;;2.30;;
4210;SDS011;2119;48.828;12.396;2022-08-11T16:45:42;3.67;;;2.67;;
4210;SDS011;2119;48.828;12.396;2022-08-11T16:51:05;2.83;;;2.63;;
4210;SDS011;2119;48.828;12.396;2022-08-11T16:56:06;4.00;;;2.70;;
4210;SDS011;2119;48.828;12.396;2022-08-11T17:01:07;2.43;;;2.33;;
4210;SDS011;2119;48.828;12.396;2022-08-11T17:06:08;2.40;;;2.30;;
4210;SDS011;2119;48.828;12.396;2022-08-11T17:11:30;3.07;;;2.87;;
4210;SDS011;2119;48.828;12.396;2022-08-11T17:16:49;2.80;;;2.60;;
4210;SDS011;2119;48.828;12.396;2022-08-11T17:21:50;3.17;;;2.87;;
4210;SDS011;2119;48.828;12.396;2022-08-11T17:27:09;2.63;;;2.43;;
4210;SDS011;2119;48.828;12.396;2022-08-11T17:32:14;2.90;;;2.73;;
4210;SDS011;2119;48.828;12.396;2022-08-11T17:37:38;2.73;;;2.53;;
4210;SDS011;2119;48.828;12.396;2022-08-11T17:42:39;5.50;;;2.47;;
4210;SDS011;2119;48.828;12.396;2022-08-11T17:47:59;3.07;;;2.73;;
4210;SDS011;2119;48.828;12.396;2022-08-11T17:53:18;6.63;;;2.50;;
4210;SDS011;2119;48.828;12.396;2022-08-11T17:58:38;2.87;;;2.70;;
4210;SDS011;2119;48.828;12.396;2022-08-11T18:03:58;3.07;;;2.73;;
4210;SDS011;2119;48.828;12.396;2022-08-11T18:08:59;4.03;;;3.00;;
4210;SDS011;2119;48.828;12.396;2022-08-11T18:14:18;3.50;;;3.30;;
4210;SDS011;2119;48.828;12.396;2022-08-11T18:19:38;3.03;;;2.77;;
4210;SDS011;2119;48.828;12.396;2022-08-11T18:24:59;3.40;;;3.10;;
4210;SDS011;2119;48.828;12.396;2022-08-11T18:30:18;3.00;;;2.80;;
4210;SDS011;2119;48.828;12.396;2022-08-11T18:35:38;3.47;;;3.27;;
4210;SDS011;2119;48.828;12.396;2022-08-11T18:40:59;2.83;;;2.63;;
4210;SDS011;2119;48.828;12.396;2022-08-11T18:46:19;3.10;;;2.90;;
4210;SDS011;2119;48.828;12.396;2022-08-11T18:51:38;4.03;;;3.30;;
4210;SDS011;2119;48.828;12.396;2022-08-11T18:57:00;5.67;;;3.80;;
4210;SDS011;2119;48.828;12.396;2022-08-11T19:02:19;5.10;;;3.20;;
4210;SDS011;2119;48.828;12.396;2022-08-11T19:07:40;7.37;;;3.60;;
4210;SDS011;2119;48.828;12.396;2022-08-11T19:13:00;7.90;;;2.93;;
4210;SDS011;2119;48.828;12.396;2022-08-11T19:18:20;6.57;;;3.60;;
4210;SDS011;2119;48.828;12.396;2022-08-11T19:23:43;4.63;;;3.33;;
4210;SDS011;2119;48.828;12.396;2022-08-11T19:29:02;3.50;;;3.20;;
4210;SDS011;2119;48.828;12.396;2022-08-11T19:34:23;3.60;;;3.30;;
4210;SDS011;2119;48.828;12.396;2022-08-11T19:39:42;3.80;;;3.50;;
4210;SDS011;2119;48.828;12.396;2022-08-11T19:45:02;3.97;;;3.43;;
4210;SDS011;2119;48.828;12.396;2022-08-11T19:50:22;3.20;;;3.00;;
4210;SDS011;2119;48.828;12.396;2022-08-11T19:55:41;3.30;;;3.00;;
4210;SDS011;2119;48.828;12.396;2022-08-11T20:01:00;4.23;;;3.33;;
4210;SDS011;2119;48.828;12.396;2022-08-11T20:06:20;3.33;;;3.13;;
4210;SDS011;2119;48.828;12.396;2022-08-11T20:11:42;3.70;;;3.40;;
4210;SDS011;2119;48.828;12.396;2022-08-11T20:17:11;3.60;;;3.40;;
4210;SDS011;2119;48.828;12.396;2022-08-11T20:22:32;6.40;;;3.60;;
4210;SDS011;2119;48.828;12.396;2022-08-11T20:27:55;4.63;;;3.50;;
4210;SDS011;2119;48.828;12.396;2022-08-11T20:33:16;3.43;;;3.23;;
4210;SDS011;2119;48.828;12.396;2022-08-11T20:38:36;3.73;;;3.53;;
4210;SDS011;2119;48.828;12.396;2022-08-11T20:43:56;3.60;;;3.33;;
4210;SDS011;2119;48.828;12.396;2022-08-11T20:49:15;3.80;;;3.50;;
4210;SDS011;2119;48.828;12.396;2022-08-11T20:54:35;3.77;;;3.57;;
4210;SDS011;2119;48.828;12.396;2022-08-11T20:59:54;3.67;;;3.47;;
4210;SDS011;2119;48.828;12.396;2022-08-11T21:05:14;3.60;;;3.40;;
4210;SDS011;2119;48.828;12.396;2022-08-11T21:10:34;3.90;;;3.60;;
4210;SDS011;2119;48.828;12.396;2022-08-11T21:15:57;3.67;;;3.37;;
4210;SDS011;2119;48.828;12.396;2022-08-11T21:21:16;7.13;;;4.20;;
4210;SDS011;2119;48.828;12.396;2022-08-11T21:26:36;4.40;;;4.10;;
4210;SDS011;2119;48.828;12.396;2022-08-11T21:31:56;3.83;;;3.53;;
4210;SDS011;2119;48.828;12.396;2022-08-11T21:37:16;4.00;;;3.70;;
4210;SDS011;2119;48.828;12.396;2022-08-11T21:42:36;4.80;;;4.30;;
4210;SDS011;2119;48.828;12.396;2022-08-11T21:47:56;4.10;;;3.57;;
4210;SDS011;2119;48.828;12.396;2022-08-11T21:53:15;4.53;;;4.20;;
4210;SDS011;2119;48.828;12.396;2022-08-11T21:58:34;3.90;;;3.63;;
4210;SDS011;2119;48.828;12.396;2022-08-11T22:03:53;5.57;;;4.00;;
4210;SDS011;2119;48.828;12.396;2022-08-11T22:09:12;4.67;;;4.27;;
4210;SDS011;2119;48.828;12.396;2022-08-11T22:14:33;4.77;;;4.47;;
4210;SDS011;2119;48.828;12.396;2022-08-11T22:19:53;5.77;;;4.60;;
4210;SDS011;2119;48.828;12.396;2022-08-11T22:25:13;4.40;;;4.10;;
4210;SDS011;2119;48.828;12.396;2022-08-11T22:30:33;4.80;;;4.30;;
4210;SDS011;2119;48.828;12.396;2022-08-11T22:35:52;5.00;;;4.60;;
4210;SDS011;2119;48.828;12.396;2022-08-11T22:41:11;4.43;;;4.10;;
4210;SDS011;2119;48.828;12.396;2022-08-11T22:46:30;4.80;;;4.47;;
4210;SDS011;2119;48.828;12.396;2022-08-11T22:51:52;5.97;;;5.37;;
4210;SDS011;2119;48.828;12.396;2022-08-11T22:57:15;4.80;;;4.50;;
4210;SDS011;2119;48.828;12.396;2022-08-11T23:02:34;4.63;;;4.23;;
4210;SDS011;2119;48.828;12.396;2022-08-11T23:13:17;4.60;;;4.40;;
4210;SDS011;2119;48.828;12.396;2022-08-11T23:18:37;4.60;;;4.30;;
4210;SDS011;2119;48.828;12.396;2022-08-11T23:23:58;4.53;;;4.23;;
4210;SDS011;2119;48.828;12.396;2022-08-11T23:29:17;4.90;;;4.50;;
4210;SDS011;2119;48.828;12.396;2022-08-11T23:34:38;5.17;;;4.83;;
4210;SDS011;2119;48.828;12.396;2022-08-11T23:39:58;5.07;;;4.67;;
4210;SDS011;2119;48.828;12.396;2022-08-11T23:45:17;4.70;;;4.30;;
4210;SDS011;2119;48.828;12.396;2022-08-11T23:50:36;6.17;;;4.70;;
4210;SDS011;2119;48.828;12.396;2022-08-11T23:55:54;4.80;;;4.50;;
